Data for 11/29/2016

Time Sea-Level Adjusted Pressure Absolute Pressure Temperature Relative Humidity Dew Point   
(mb) (inHg) (mb) (inHg) (C) (F) (%) (C) (F)
00:05 1010 29.83 840 24.81 -2.3 27.8 89 -3.9 25
00:10 1010 29.83 840 24.81 -2.3 27.8 89 -3.9 24.9
00:15 1011 29.85 840 24.81 -2.3 27.9 88 -4 24.8
00:20 1011 29.85 840 24.81 -2.2 28 87 -4 24.7
00:25 1011 29.85 840 24.81 -2.2 28 87 -4.1 24.6
00:30 1011 29.85 840 24.81 -2.2 28.1 86 -4.2 24.4
00:35 1011 29.85 840 24.81 -2.1 28.2 86 -4.2 24.5
00:40 1011 29.85 840 24.81 -2.1 28.2 85 -4.3 24.3
00:45 1011 29.85 840 24.81 -2.1 28.2 85 -4.3 24.3
00:50 1011 29.85 840 24.81 -2.2 28.1 86 -4.3 24.3
00:55 1011 29.85 840 24.81 -2.2 28.1 86 -4.3 24.3
01:00 1011 29.85 840 24.81 -2.1 28.1 85 -4.3 24.2
01:05 1011 29.85 840 24.81 -2.1 28.1 85 -4.4 24.2
01:10 1011 29.85 840 24.81 -2.1 28.2 85 -4.3 24.2
01:15 1011 29.85 840 24.81 -2.1 28.1 85 -4.4 24.1
01:20 1011 29.85 840 24.81 -2.1 28.2 84 -4.4 24
01:25 1011 29.85 840 24.81 -2.1 28.1 85 -4.4 24.1
01:30 1011 29.85 840 24.81 -2.1 28.1 84 -4.5 24
01:35 1011 29.85 840 24.81 -2.2 28.1 84 -4.5 24
01:40 1011 29.85 840 24.81 -2.1 28.2 84 -4.5 23.9
01:45 1011 29.85 840 24.81 -2.3 27.9 85 -4.5 24
01:50 1011 29.85 840 24.81 -2.3 27.9 85 -4.5 23.9
01:55 1011 29.85 840 24.81 -2.3 27.9 85 -4.4 24
02:00 1011 29.85 841 24.83 -2.2 28.1 85 -4.4 24.2
02:05 1011 29.85 841 24.83 -2.1 28.2 85 -4.3 24.3
02:10 1011 29.85 841 24.83 -2.1 28.2 84 -4.4 24.1
02:15 1011 29.85 841 24.83 -2.1 28.3 85 -4.3 24.3
02:20 1011 29.85 841 24.83 -2.1 28.2 86 -4.2 24.5
02:25 1011 29.85 841 24.83 -2.2 28 86 -4.3 24.3
02:30 1011 29.85 841 24.83 -2.2 28 85 -4.4 24.1
02:35 1012 29.88 841 24.83 -2.2 28 85 -4.5 23.9
02:40 1012 29.88 841 24.83 -2.3 27.9 85 -4.5 24
02:45 1012 29.88 841 24.83 -2.2 28 85 -4.4 24
02:50 1012 29.88 841 24.83 -2.2 28 84 -4.6 23.7
02:55 1012 29.88 841 24.83 -2.3 27.9 84 -4.6 23.7
03:00 1012 29.88 841 24.83 -2.2 28 84 -4.6 23.7
03:05 1012 29.88 841 24.83 -2.3 27.9 84 -4.6 23.8
03:10 1012 29.88 841 24.83 -2.2 28 84 -4.6 23.7
03:15 1012 29.88 841 24.83 -2.2 28 84 -4.6 23.7
03:20 1012 29.88 841 24.83 -2.2 28 84 -4.6 23.8
03:25 1012 29.88 841 24.83 -2.3 27.9 84 -4.6 23.8
03:30 1012 29.88 841 24.83 -2.3 27.8 85 -4.5 23.9
03:35 1012 29.88 841 24.83 -2.4 27.7 86 -4.4 24.1
03:40 1012 29.88 841 24.83 -2.4 27.6 87 -4.3 24.2
03:45 1012 29.88 841 24.83 -2.4 27.7 87 -4.3 24.3
03:50 1012 29.88 841 24.83 -2.3 27.8 87 -4.3 24.3
03:55 1012 29.88 841 24.83 -2.3 27.9 86 -4.3 24.3
04:00 1012 29.88 841 24.83 -2.3 27.9 86 -4.3 24.3
04:05 1012 29.88 841 24.83 -2.3 27.8 85 -4.5 23.9
04:10 1012 29.88 842 24.86 -2.4 27.7 85 -4.5 23.9
04:15 1012 29.88 842 24.86 -2.4 27.7 85 -4.6 23.7
04:20 1012 29.88 842 24.86 -2.4 27.7 84 -4.7 23.5
04:25 1012 29.88 842 24.86 -2.4 27.8 83 -4.9 23.3
04:30 1012 29.88 842 24.86 -2.3 27.8 83 -4.8 23.4
04:35 1013 29.91 842 24.86 -2.4 27.6 85 -4.7 23.6
04:40 1013 29.91 842 24.86 -2.6 27.3 86 -4.6 23.7
04:45 1013 29.91 842 24.86 -2.7 27.2 87 -4.6 23.7
04:50 1013 29.91 842 24.86 -2.7 27.2 86 -4.7 23.5
04:55 1013 29.91 842 24.86 -2.6 27.2 84 -4.9 23.1
05:00 1013 29.91 842 24.86 -2.6 27.3 84 -4.9 23.1
05:05 1013 29.91 842 24.86 -2.5 27.4 84 -4.9 23.2
05:10 1013 29.91 842 24.86 -2.5 27.5 84 -4.9 23.2
05:15 1013 29.91 842 24.86 -2.5 27.5 85 -4.8 23.4
05:20 1013 29.91 842 24.86 -2.5 27.5 86 -4.6 23.7
05:25 1013 29.91 843 24.89 -2.6 27.3 87 -4.5 23.8
05:30 1013 29.91 843 24.89 -2.7 27.2 87 -4.5 23.9
05:35 1013 29.91 843 24.89 -2.7 27.1 88 -4.5 24
05:40 1013 29.91 843 24.89 -2.8 27 88 -4.5 24
05:45 1013 29.91 843 24.89 -2.9 26.8 89 -4.4 24.1
05:50 1014 29.94 843 24.89 -2.9 26.8 90 -4.3 24.2
05:55 1014 29.94 843 24.89 -2.9 26.9 90 -4.3 24.2
06:00 1014 29.94 843 24.89 -2.8 26.9 90 -4.3 24.3
06:05 1014 29.94 843 24.89 -2.8 26.9 89 -4.3 24.2
06:10 1014 29.94 843 24.89 -2.9 26.8 90 -4.4 24.1
06:15 1014 29.94 843 24.89 -2.9 26.8 89 -4.5 23.9
06:20 1014 29.94 843 24.89 -2.8 27 88 -4.5 23.9
06:25 1014 29.94 843 24.89 -2.7 27.1 87 -4.6 23.7
06:30 1014 29.94 843 24.89 -2.7 27.2 86 -4.6 23.7
06:35 1014 29.94 843 24.89 -2.5 27.4 83 -5.1 22.8
06:40 1014 29.94 843 24.89 -2.3 27.8 79 -5.6 22
06:45 1014 29.94 843 24.89 -2.2 28 77 -5.7 21.8
06:50 1014 29.94 843 24.89 -2.2 28.1 77 -5.7 21.8
06:55 1014 29.94 843 24.89 -2.2 28 77 -5.7 21.7
07:00 1014 29.94 844 24.92 -2.2 28.1 77 -5.7 21.7
07:05 1014 29.94 844 24.92 -2.2 28.1 76 -5.8 21.6
07:10 1014 29.94 844 24.92 -2.2 28.1 75 -6 21.2
07:15 1014 29.94 844 24.92 -2.2 28 75 -6 21.3
07:20 1015 29.97 844 24.92 -2.2 28.1 74 -6.2 20.9
07:25 1015 29.97 844 24.92 -2.2 28.1 73 -6.4 20.6
07:30 1015 29.97 844 24.92 -2.2 28.1 71 -6.8 19.7
07:35 1015 29.97 844 24.92 -2.1 28.2 70 -6.9 19.7
07:40 1015 29.97 844 24.92 -2.1 28.2 70 -6.8 19.7
07:45 1015 29.97 844 24.92 -2.1 28.1 71 -6.7 19.9
07:50 1015 29.97 844 24.92 -2.2 28.1 71 -6.7 19.9
07:55 1015 29.97 844 24.92 -2.2 28 71 -6.8 19.8
08:00 1015 29.97 844 24.92 -2.3 28 71 -6.8 19.8
08:05 1015 29.97 844 24.92 -2.2 28.1 71 -6.7 20
08:10 1015 29.97 844 24.92 -2.1 28.2 70 -6.8 19.8
08:15 1015 29.97 844 24.92 -2 28.3 70 -6.8 19.7
08:20 1015 29.97 844 24.92 -2 28.4 70 -6.7 19.9
08:25 1015 29.97 845 24.95 -2 28.4 71 -6.6 20.1
08:30 1015 29.97 845 24.95 -2 28.4 72 -6.5 20.3
08:35 1015 29.97 845 24.95 -2.1 28.2 73 -6.3 20.7
08:40 1015 29.97 845 24.95 -2.2 28.1 73 -6.3 20.6
08:45 1016 30 845 24.95 -2.2 28 73 -6.3 20.6
08:50 1016 30 845 24.95 -2.5 27.4 76 -6.3 20.7
08:55 1016 30 845 24.95 -2.7 27.1 77 -6.3 20.6
09:00 1016 30 845 24.95 -2.7 27.2 75 -6.5 20.3
09:05 1016 30 845 24.95 -2.6 27.4 76 -6.3 20.7
09:10 1016 30 845 24.95 -2.5 27.5 74 -6.6 20.2
09:15 1016 30 845 24.95 -2.4 27.7 73 -6.7 20
09:20 1016 30 845 24.95 -2.4 27.7 73 -6.7 20
09:25 1016 30 845 24.95 -2.4 27.8 72 -6.7 20
09:30 1016 30 845 24.95 -2.3 27.8 73 -6.6 20.2
09:35 1016 30 845 24.95 -2.3 27.9 72 -6.7 19.9
09:40 1016 30 845 24.95 -2.2 28 72 -6.7 20
09:45 1016 30 845 24.95 -2.2 28 72 -6.5 20.2
09:50 1016 30 845 24.95 -2.2 28.1 71 -6.7 20
09:55 1016 30 846 24.98 -2.1 28.2 71 -6.8 19.8
10:00 1016 30 846 24.98 -2.1 28.2 71 -6.8 19.8
10:05 1016 30 846 24.98 -2.1 28.3 71 -6.7 20
10:10 1016 30 846 24.98 -2.1 28.2 71 -6.6 20.1
10:15 1016 30 846 24.98 -2 28.4 70 -6.8 19.8
10:20 1016 30 846 24.98 -1.9 28.6 70 -6.6 20.1
10:25 1016 30 846 24.98 -1.8 28.7 70 -6.6 20.2
10:30 1017 30.03 846 24.98 -1.9 28.6 71 -6.5 20.2
10:35 1017 30.03 846 24.98 -1.9 28.6 70 -6.6 20.2
10:40 1017 30.03 846 24.98 -1.9 28.5 70 -6.6 20.1
10:45 1017 30.03 846 24.98 -1.9 28.5 70 -6.8 19.8
10:50 1017 30.03 846 24.98 -2 28.4 70 -6.8 19.8
10:55 1017 30.03 846 24.98 -2.2 28 69 -7.1 19.2
11:00 1017 30.03 846 24.98 -2.2 28 69 -7.2 19.1
11:05 1017 30.03 846 24.98 -2.3 27.9 71 -6.9 19.5
11:10 1017 30.03 846 24.98 -1.9 28.5 70 -6.7 19.9
11:15 1017 30.03 846 24.98 -1.9 28.6 71 -6.5 20.2
11:20 1017 30.03 846 24.98 -1.8 28.7 70 -6.6 20
11:25 1017 30.03 846 24.98 -1.4 29.4 65 -7.1 19.2
11:30 1017 30.03 846 24.98 -0.9 30.5 65 -6.6 20
11:35 1017 30.03 846 24.98 -0.7 30.7 63 -6.9 19.6
11:40 1017 30.03 846 24.98 -0.3 31.5 61 -6.9 19.6
11:45 1017 30.03 846 24.98 -0.5 31.1 64 -6.5 20.2
11:50 1017 30.03 846 24.98 -0.8 30.5 64 -6.8 19.7
11:55 1017 30.03 847 25.01 -1.1 30.1 63 -7.2 19.1
12:00 1017 30.03 846 24.98 -1 30.1 64 -7 19.4
12:05 1017 30.03 847 25.01 -0.9 30.5 63 -7 19.3
12:10 1017 30.03 847 25.01 -0.6 30.8 62 -7 19.4
12:15 1017 30.03 847 25.01 -0.5 31 61 -7.1 19.3
12:20 1017 30.03 847 25.01 -0.7 30.7 63 -7 19.4
12:25 1017 30.03 847 25.01 -0.6 30.9 62 -7 19.4
12:30 1017 30.03 847 25.01 -0.5 31 62 -6.9 19.6
12:35 1017 30.03 846 24.98 -0.6 30.9 63 -6.8 19.7
12:40 1017 30.03 846 24.98 -0.7 30.8 63 -6.9 19.6
12:45 1017 30.03 847 25.01 -0.7 30.7 63 -6.9 19.6
12:50 1017 30.03 847 25.01 -0.8 30.5 64 -6.9 19.6
12:55 1017 30.03 847 25.01 -0.9 30.5 64 -6.8 19.8
13:00 1017 30.03 846 24.98 -0.6 31 63 -6.7 20
13:05 1017 30.03 846 24.98 -0 31.9 60 -7 19.5
13:10 1017 30.03 846 24.98 0.7 33.2 56 -7.1 19.2
13:15 1017 30.03 846 24.98 1.1 34.1 55 -6.9 19.5
13:20 1017 30.03 846 24.98 1.1 34 54 -7.1 19.3
13:25 1017 30.03 846 24.98 0.7 33.3 55 -7.4 18.7
13:30 1017 30.03 846 24.98 1 33.7 56 -6.9 19.6
13:35 1017 30.03 846 24.98 0.5 32.9 57 -7 19.4
13:40 1017 30.03 846 24.98 -0 32 59 -7 19.4
13:45 1017 30.03 846 24.98 0.1 32.1 58 -7.3 18.9
13:50 1017 30.03 846 24.98 0.7 33.2 55 -7.3 18.8
13:55 1017 30.03 847 25.01 1.1 34.1 55 -6.8 19.7
14:00 1017 30.03 847 25.01 1.7 35.1 65 -4.3 24.3
14:05 1017 30.03 847 25.01 0.2 32.3 73 -4.1 24.6
14:10 1018 30.06 847 25.01 -1.8 28.8 83 -4.3 24.2
14:15 1018 30.06 847 25.01 -2.2 28.1 81 -5.1 22.9
14:20 1018 30.06 847 25.01 -2.4 27.6 85 -4.6 23.6
14:25 1017 30.03 847 25.01 -2.4 27.7 81 -5.2 22.6
14:30 1017 30.03 847 25.01 -2.1 28.3 80 -5.1 22.9
14:35 1017 30.03 847 25.01 -1.8 28.8 78 -5.2 22.7
14:40 1017 30.03 847 25.01 -1.8 28.8 80 -4.8 23.4
14:45 1018 30.06 847 25.01 -1.1 29.9 78 -4.5 24
14:50 1018 30.06 847 25.01 -0.9 30.3 78 -4.3 24.3
14:55 1018 30.06 847 25.01 -1.9 28.6 82 -4.6 23.7
15:00 1018 30.06 847 25.01 -2 28.3 84 -4.4 24
15:05 1018 30.06 847 25.01 -2.5 27.6 86 -4.5 24
15:10 1018 30.06 847 25.01 -2.4 27.7 86 -4.4 24.1
15:15 1018 30.06 847 25.01 -2.1 28.1 84 -4.4 24
15:20 1018 30.06 847 25.01 -2.1 28.3 81 -4.9 23.2
15:25 1018 30.06 847 25.01 -2 28.4 83 -4.4 24
15:30 1018 30.06 847 25.01 -1.9 28.6 82 -4.6 23.8
15:35 1018 30.06 847 25.01 -2.2 28 82 -4.9 23.2
15:40 1018 30.06 847 25.01 -2.5 27.4 80 -5.5 22.2
15:45 1018 30.06 847 25.01 -2.5 27.5 79 -5.6 21.9
15:50 1018 30.06 847 25.01 -2.6 27.3 83 -5.2 22.7
15:55 1018 30.06 847 25.01 -2.8 26.9 82 -5.5 22.2
16:00 1018 30.06 847 25.01 -3.4 25.8 85 -5.6 21.8
16:05 1018 30.06 847 25.01 -3.8 25.1 88 -5.6 22
16:10 1018 30.06 847 25.01 -3.9 24.9 88 -5.6 21.9
16:15 1018 30.06 847 25.01 -3.9 25 88 -5.6 21.9
16:20 1018 30.06 847 25.01 -3.6 25.5 87 -5.5 22.1
16:25 1018 30.06 847 25.01 -2.6 27.3 80 -5.6 21.9
16:30 1018 30.06 847 25.01 -1.9 28.6 77 -5.4 22.3
16:35 1018 30.06 847 25.01 -2.5 27.4 80 -5.5 22.1
16:40 1018 30.06 848 25.04 -2.7 27.1 79 -5.9 21.5
16:45 1018 30.06 848 25.04 -2.3 27.9 79 -5.5 22.1
16:50 1018 30.06 848 25.04 -2.2 28.1 77 -5.6 21.9
16:55 1018 30.06 848 25.04 -2.3 27.8 77 -5.8 21.5
17:00 1018 30.06 848 25.04 -2.3 27.8 77 -5.9 21.4
17:05 1018 30.06 848 25.04 -2.5 27.6 77 -5.9 21.4
17:10 1018 30.06 848 25.04 -2.9 26.8 79 -6.1 21
17:15 1018 30.06 848 25.04 -3 26.6 79 -6.1 21
17:20 1018 30.06 848 25.04 -3 26.6 79 -6.1 21
17:25 1018 30.06 848 25.04 -3 26.5 79 -6.1 21
17:30 1018 30.06 848 25.04 -3.3 26.1 79 -6.4 20.5
17:35 1018 30.06 848 25.04 -3.5 25.7 80 -6.4 20.4
17:40 1018 30.06 848 25.04 -3.7 25.4 80 -6.6 20
17:45 1019 30.09 848 25.04 -3.6 25.4 79 -6.7 19.9
17:50 1019 30.09 848 25.04 -3.5 25.7 79 -6.7 19.9
17:55 1019 30.09 848 25.04 -3.5 25.7 78 -6.8 19.7
18:00 1019 30.09 848 25.04 -3.7 25.3 78 -7 19.3
18:05 1019 30.09 848 25.04 -4.1 24.6 79 -7.3 18.9
18:10 1019 30.09 848 25.04 -4 24.7 78 -7.3 18.8
18:15 1019 30.09 848 25.04 -3.9 24.9 78 -7.2 19
18:20 1019 30.09 848 25.04 -4 24.9 78 -7.3 18.8
18:25 1019 30.09 848 25.04 -4.3 24.3 77 -7.7 18.1
18:30 1019 30.09 848 25.04 -4.6 23.7 80 -7.5 18.5
18:35 1019 30.09 848 25.04 -4.9 23.2 79 -7.9 17.8
18:40 1019 30.09 848 25.04 -5 23.1 79 -8 17.6
18:45 1019 30.09 848 25.04 -4.9 23.1 80 -7.9 17.7
18:50 1019 30.09 848 25.04 -5 23 78 -8.3 17.1
18:55 1019 30.09 848 25.04 -4.9 23.2 77 -8.3 17
19:00 1019 30.09 848 25.04 -4.9 23.1 77 -8.3 17.1
19:05 1019 30.09 848 25.04 -5 23 77 -8.4 16.9
19:10 1019 30.09 848 25.04 -5 23 78 -8.4 17
19:15 1019 30.09 848 25.04 -5 23 77 -8.4 16.9
19:20 1019 30.09 848 25.04 -5 23 79 -8.1 17.5
19:25 1019 30.09 848 25.04 -5 23.1 79 -8.1 17.5
19:30 1019 30.09 848 25.04 -5.1 22.8 79 -8.2 17.3
19:35 1019 30.09 848 25.04 -5.2 22.6 79 -8.3 17
19:40 1019 30.09 848 25.04 -5.2 22.6 77 -8.6 16.5
19:45 1019 30.09 848 25.04 -5.3 22.5 79 -8.3 17.1
19:50 1019 30.09 848 25.04 -5.5 22.1 81 -8.3 17.1
19:55 1019 30.09 848 25.04 -5.6 21.9 81 -8.3 17
20:00 1019 30.09 848 25.04 -5.6 21.8 79 -8.7 16.3
20:05 1019 30.09 848 25.04 -5.7 21.7 78 -9 15.8
20:10 1019 30.09 848 25.04 -5.7 21.8 77 -9.1 15.7
20:15 1019 30.09 848 25.04 -5.7 21.8 76 -9.2 15.5
20:20 1019 30.09 848 25.04 -5.5 22.1 75 -9.3 15.3
20:25 1019 30.09 848 25.04 -5.1 22.7 74 -9.1 15.7
20:30 1019 30.09 848 25.04 -5 23 74 -9 15.8
20:35 1019 30.09 848 25.04 -5.1 22.7 74 -9 15.7
20:40 1019 30.09 848 25.04 -5.3 22.4 75 -9.1 15.5
20:45 1019 30.09 848 25.04 -5.6 22 76 -9.2 15.4
20:50 1019 30.09 848 25.04 -5.7 21.7 76 -9.3 15.2
20:55 1019 30.09 848 25.04 -5.9 21.3 77 -9.4 15.2
21:00 1019 30.09 848 25.04 -6.1 21 78 -9.3 15.2
21:05 1019 30.09 848 25.04 -6.2 20.9 78 -9.3 15.2
21:10 1019 30.09 848 25.04 -6.2 20.8 79 -9.3 15.3
21:15 1019 30.09 848 25.04 -6.2 20.8 78 -9.4 15.1
21:20 1019 30.09 848 25.04 -6.2 20.8 78 -9.5 14.9
21:25 1019 30.09 848 25.04 -6.2 20.8 77 -9.7 14.6
21:30 1019 30.09 848 25.04 -6.4 20.6 78 -9.6 14.8
21:35 1019 30.09 848 25.04 -6.5 20.2 80 -9.4 15.1
21:40 1019 30.09 848 25.04 -6.6 20.2 80 -9.4 15
21:45 1019 30.09 848 25.04 -6.5 20.3 79 -9.5 14.9
21:50 1019 30.09 848 25.04 -6.6 20.2 79 -9.7 14.6
21:55 1018 30.06 848 25.04 -6.7 20 79 -9.8 14.4
22:00 1018 30.06 848 25.04 -6.8 19.7 79 -9.9 14.3
22:05 1018 30.06 848 25.04 -7 19.4 80 -9.9 14.1
22:10 1018 30.06 848 25.04 -7.1 19.3 80 -9.9 14.1
22:15 1018 30.06 848 25.04 -6.9 19.6 79 -10 14
22:20 1018 30.06 848 25.04 -6.9 19.6 79 -10 14
22:25 1018 30.06 848 25.04 -7 19.4 79 -10.1 13.9
22:30 1018 30.06 848 25.04 -7 19.5 79 -10 14
22:35 1018 30.06 848 25.04 -7 19.5 79 -10.1 13.9
22:40 1018 30.06 848 25.04 -7 19.4 79 -10.1 13.8
22:45 1018 30.06 848 25.04 -7.1 19.2 80 -10 13.9
22:50 1018 30.06 848 25.04 -6.9 19.6 77 -10.2 13.6
22:55 1018 30.06 847 25.01 -6.9 19.6 79 -10 13.9
23:00 1018 30.06 847 25.01 -6.8 19.7 78 -10.1 13.8
23:05 1018 30.06 847 25.01 -6.8 19.7 78 -10.1 13.9
23:10 1018 30.06 847 25.01 -6.9 19.6 77 -10.3 13.5
23:15 1018 30.06 847 25.01 -7 19.4 77 -10.3 13.5
23:20 1018 30.06 847 25.01 -7 19.4 77 -10.3 13.4
23:25 1018 30.06 847 25.01 -6.9 19.5 77 -10.3 13.4
23:30 1018 30.06 847 25.01 -6.9 19.6 76 -10.4 13.3
23:35 1018 30.06 847 25.01 -7.1 19.3 77 -10.5 13.1
23:40 1018 30.06 847 25.01 -7.2 19.1 77 -10.5 13
23:45 1018 30.06 847 25.01 -7.1 19.2 77 -10.5 13.1
23:50 1018 30.06 847 25.01 -7.3 18.9 78 -10.5 13.2
23:55 1018 30.06 847 25.01 -7.4 18.8 78 -10.6 13
24:00 1018 30.06 847 25.01 -7.3 18.8 78 -10.5 13.1